Terminal Aerodrome Forecast
Issued by NWS

Home | Current Version | Previous Version | Text Only | Print | Product List | Glossary On
Versions: 1 2 3 4 5 6 7 8 9 10 11 12 13 14 15 16 17 18 19 20 21 22 23 24
000
FTUS44 KOUN 261122
TAFPNC
TAF
KPNC 261122Z 2612/2712 31009KT P6SM BKN090 BKN250
     FM261400 35015G24KT P6SM SCT100 BKN250
     FM270100 VRB05KT P6SM SKC=

USA.gov is the U.S. government's official web portal to all federal, state and local government web resources and services.